Time;durP1;ratioP1;P1;durP2;ratioP2;P2;SDS_P1;SDS_P2;PMS_P1;PMS_P2;Temp;Humidity;BMP_temperature;BMP_pressure;BME280_temperature;BME280_humidity;BME280_pressure;Samples;Min_cycle;Max_cycle;Signal;HPM_P1;HPM_P2
2021/05/20 00:00:22;;;;;;;;;;;;;;;2.92;100.00;99353.72;5035946;28;19932;-88
2021/05/20 00:02:49;;;;;;;;;;;;;;;2.97;100.00;99360.94;5035550;28;19979;-87
2021/05/20 00:05:17;;;;;;;;;;;;;;;3.05;100.00;99357.94;5054802;28;20019;-87
2021/05/20 00:07:45;;;;;;;;;;;;;;;3.07;100.00;99354.81;5023016;28;20296;-87
2021/05/20 00:10:13;;;;;;;;;;;;;;;2.99;100.00;99358.59;5039317;28;19929;-87
2021/05/20 00:12:40;;;;;;;;;;;;;;;2.93;100.00;99354.53;5039627;28;19925;-87
2021/05/20 00:15:07;;;;;;;;;;;;;;;2.87;100.00;99361.53;5055993;28;19925;-87
2021/05/20 00:17:35;;;;;;;;;;;;;;;2.85;100.00;99358.31;5006538;28;19929;-87
2021/05/20 00:20:03;;;;;;;;;;;;;;;2.80;100.00;99351.13;5039298;28;20374;-87
2021/05/20 00:22:30;;;;;;;;;;;;;;;2.85;100.00;99347.28;5039336;28;20319;-87
2021/05/20 00:24:59;;;;;;;;;;;;;;;2.78;100.00;99347.97;5040589;28;19932;-87
2021/05/20 00:27:26;;;;;;;;;;;;;;;2.70;100.00;99345.41;5068837;28;19973;-87
2021/05/20 00:29:54;;;;;;;;;;;;;;;2.74;100.00;99346.31;5038878;28;19924;-87
2021/05/20 00:32:23;;;;;;;;;;;;;;;2.76;100.00;99347.53;5023214;28;19925;-87
2021/05/20 00:34:50;;;;;;;;;;;;;;;2.62;100.00;99361.03;5022609;28;19958;-87
2021/05/20 00:37:18;;;;;;;;;;;;;;;2.59;100.00;99356.25;5039217;28;19924;-87
2021/05/20 00:39:45;;;;;;;;;;;;;;;2.70;100.00;99353.69;5037190;28;20287;-87
2021/05/20 00:42:13;;;;;;;;;;;;;;;2.60;100.00;99360.63;5071689;28;20027;-87
2021/05/20 00:44:50;;;;;;;;;;;;;;;2.46;100.00;99352.03;5031704;28;19946;-86
2021/05/20 00:47:18;;;;;;;;;;;;;;;2.42;100.00;99355.91;5039781;28;19931;-87
2021/05/20 00:49:46;;;;;;;;;;;;;;;2.52;100.00;99355.31;5055107;28;20379;-87
2021/05/20 00:52:13;;;;;;;;;;;;;;;2.48;100.00;99346.16;5021727;28;19929;-87
2021/05/20 00:54:41;;;;;;;;;;;;;;;2.43;100.00;99346.44;5055033;28;20024;-87
2021/05/20 00:57:09;;;;;;;;;;;;;;;2.39;100.00;99342.84;5056391;28;19925;-87
2021/05/20 00:59:37;;;;;;;;;;;;;;;2.39;100.00;99351.91;5054736;28;20038;-86
2021/05/20 01:02:04;;;;;;;;;;;;;;;2.66;100.00;99350.06;5038150;28;20292;-87
2021/05/20 01:04:31;;;;;;;;;;;;;;;2.57;100.00;99349.50;5038158;28;19925;-86
2021/05/20 01:06:58;;;;;;;;;;;;;;;2.36;100.00;99346.31;5056066;28;19940;-86
2021/05/20 01:09:26;;;;;;;;;;;;;;;2.16;100.00;99344.69;5056111;28;20449;-86
2021/05/20 01:11:53;;;;;;;;;;;;;;;1.86;100.00;99339.72;5038606;28;19974;-86
2021/05/20 01:14:20;;;;;;;;;;;;;;;2.00;100.00;99344.75;5054722;28;20012;-86
2021/05/20 01:16:47;;;;;;;;;;;;;;;2.07;100.00;99349.63;5020912;28;19924;-86
2021/05/20 01:19:15;;;;;;;;;;;;;;;2.07;100.00;99338.59;5054690;28;19936;-86
2021/05/20 01:21:42;;;;;;;;;;;;;;;2.18;100.00;99339.63;5054257;28;19924;-86
2021/05/20 01:24:10;;;;;;;;;;;;;;;2.01;100.00;99345.56;5054425;28;20055;-86
2021/05/20 01:26:38;;;;;;;;;;;;;;;1.91;100.00;99335.09;5054269;28;19932;-86
2021/05/20 01:29:06;;;;;;;;;;;;;;;1.88;100.00;99342.09;5021421;28;19931;-86
2021/05/20 01:31:41;;;;;;;;;;;;;;;1.89;100.00;99329.94;5038871;28;20276;-86
2021/05/20 01:34:09;;;;;;;;;;;;;;;1.98;100.00;99335.25;5055443;28;19928;-86
2021/05/20 01:36:36;;;;;;;;;;;;;;;1.97;100.00;99356.47;5054325;28;20032;-86
2021/05/20 01:39:03;;;;;;;;;;;;;;;2.07;100.00;99363.41;5017698;28;20006;-86
2021/05/20 01:41:31;;;;;;;;;;;;;;;2.10;100.00;99357.16;5029783;28;19924;-87
2021/05/20 01:43:58;;;;;;;;;;;;;;;1.97;100.00;99361.22;5051448;28;19924;-84
2021/05/20 01:46:25;;;;;;;;;;;;;;;1.85;100.00;99359.34;5021398;28;20319;-83
2021/05/20 01:48:53;;;;;;;;;;;;;;;1.83;100.00;99356.97;5037397;28;19924;-83
2021/05/20 01:51:22;;;;;;;;;;;;;;;1.77;100.00;99352.88;5053750;28;19931;-83
2021/05/20 01:53:51;;;;;;;;;;;;;;;1.78;100.00;99349.00;5034895;28;19925;-84
2021/05/20 01:56:18;;;;;;;;;;;;;;;1.79;100.00;99347.00;5037266;28;19931;-84
2021/05/20 01:58:46;;;;;;;;;;;;;;;1.87;100.00;99335.00;5053785;28;20389;-84
2021/05/20 02:01:14;;;;;;;;;;;;;;;1.85;100.00;99335.38;5037174;28;20357;-84
2021/05/20 02:03:41;;;;;;;;;;;;;;;1.85;100.00;99342.81;5054893;28;19932;-84
2021/05/20 02:06:08;;;;;;;;;;;;;;;1.80;100.00;99341.16;5053660;28;20378;-84
2021/05/20 02:08:37;;;;;;;;;;;;;;;1.69;100.00;99333.81;5053678;28;19924;-84
2021/05/20 02:11:07;;;;;;;;;;;;;;;1.94;100.00;99337.13;5037545;28;19925;-84
2021/05/20 02:13:35;;;;;;;;;;;;;;;1.88;100.00;99329.13;5053587;28;19931;-83
2021/05/20 02:16:02;;;;;;;;;;;;;;;1.70;100.00;99325.19;5070027;28;19932;-83
2021/05/20 02:18:29;;;;;;;;;;;;;;;1.44;100.00;99324.94;5054498;28;19925;-84
2021/05/20 02:20:56;;;;;;;;;;;;;;;1.39;100.00;99333.47;5053215;28;19956;-84
2021/05/20 02:23:24;;;;;;;;;;;;;;;1.42;100.00;99341.03;5053324;28;20027;-84
2021/05/20 02:25:51;;;;;;;;;;;;;;;1.45;100.00;99343.06;5053367;28;19931;-84
2021/05/20 02:28:19;;;;;;;;;;;;;;;1.43;100.00;99339.88;5052361;28;19924;-84
2021/05/20 02:30:46;;;;;;;;;;;;;;;1.54;100.00;99327.19;5054351;28;19960;-84
2021/05/20 02:33:13;;;;;;;;;;;;;;;1.43;100.00;99320.63;5053353;28;20384;-84
2021/05/20 02:35:41;;;;;;;;;;;;;;;1.16;100.00;99321.53;5052923;28;19925;-83
2021/05/20 02:38:08;;;;;;;;;;;;;;;1.30;100.00;99319.09;5053108;28;19931;-84
2021/05/20 02:40:35;;;;;;;;;;;;;;;1.36;100.00;99314.13;5052898;28;19989;-84
2021/05/20 02:43:04;;;;;;;;;;;;;;;1.43;100.00;99315.09;5069458;28;19947;-84
2021/05/20 02:45:31;;;;;;;;;;;;;;;1.55;100.00;99311.44;5052858;28;20295;-84
2021/05/20 02:47:59;;;;;;;;;;;;;;;1.55;100.00;99312.25;5052738;28;19928;-84
2021/05/20 02:50:26;;;;;;;;;;;;;;;1.39;100.00;99311.44;5051771;28;19978;-84
2021/05/20 02:52:53;;;;;;;;;;;;;;;1.25;100.00;99305.63;5040193;28;20369;-84
2021/05/20 02:55:22;;;;;;;;;;;;;;;1.31;100.00;99306.94;5054083;28;19924;-84
2021/05/20 02:57:55;;;;;;;;;;;;;;;1.34;100.00;99299.91;5036243;28;19974;-84
2021/05/20 03:00:26;;;;;;;;;;;;;;;1.28;100.00;99293.09;5053250;28;20383;-84
2021/05/20 03:02:53;;;;;;;;;;;;;;;1.28;100.00;99302.16;5034376;28;19925;-84
2021/05/20 03:05:20;;;;;;;;;;;;;;;1.32;100.00;99299.47;5077200;28;19924;-84
2021/05/20 03:07:47;;;;;;;;;;;;;;;1.30;100.00;99299.81;5058760;28;19978;-84
2021/05/20 03:10:15;;;;;;;;;;;;;;;1.46;100.00;99300.63;5049594;28;19925;-83
2021/05/20 03:12:42;;;;;;;;;;;;;;;1.45;100.00;99285.25;5036019;28;20016;-83
2021/05/20 03:15:09;;;;;;;;;;;;;;;1.28;100.00;99285.63;5052422;28;19987;-83
2021/05/20 03:17:36;;;;;;;;;;;;;;;1.03;100.00;99288.94;5052291;28;19925;-83
2021/05/20 03:20:04;;;;;;;;;;;;;;;1.11;100.00;99291.50;5036295;28;19924;-84
2021/05/20 03:22:33;;;;;;;;;;;;;;;1.23;100.00;99283.16;5052581;28;19928;-83
2021/05/20 03:25:01;;;;;;;;;;;;;;;1.34;100.00;99278.69;5052750;28;19951;-83
2021/05/20 03:27:31;;;;;;;;;;;;;;;1.38;100.00;99273.25;5053842;28;19924;-83
2021/05/20 03:30:04;;;;;;;;;;;;;;;1.08;100.00;99266.63;5069302;28;20059;-83
2021/05/20 03:32:31;;;;;;;;;;;;;;;0.89;100.00;99264.63;5032396;28;19975;-84
2021/05/20 03:34:58;;;;;;;;;;;;;;;1.01;100.00;99264.53;5052634;28;19936;-83
2021/05/20 03:37:25;;;;;;;;;;;;;;;1.12;100.00;99268.31;5053725;28;20005;-84
2021/05/20 03:39:53;;;;;;;;;;;;;;;1.31;100.00;99262.09;5038152;28;20023;-83
2021/05/20 03:42:20;;;;;;;;;;;;;;;1.42;100.00;99252.91;5056406;28;19971;-83
2021/05/20 03:44:47;;;;;;;;;;;;;;;1.33;100.00;99249.56;5057282;28;20048;-83
2021/05/20 03:47:16;;;;;;;;;;;;;;;1.38;100.00;99257.56;5057458;28;19925;-83
2021/05/20 03:49:44;;;;;;;;;;;;;;;1.25;100.00;99245.06;5056566;28;19924;-83
2021/05/20 03:52:11;;;;;;;;;;;;;;;1.31;100.00;99251.09;5057451;28;19925;-83
2021/05/20 03:54:42;;;;;;;;;;;;;;;1.51;100.00;99244.47;5056211;28;19970;-83
2021/05/20 03:57:10;;;;;;;;;;;;;;;1.50;100.00;99245.63;5052815;28;19924;-83
2021/05/20 03:59:37;;;;;;;;;;;;;;;1.76;100.00;99243.03;5045172;28;19932;-83
2021/05/20 04:02:05;;;;;;;;;;;;;;;1.77;100.00;99241.91;5054685;28;19925;-83
2021/05/20 04:04:32;;;;;;;;;;;;;;;1.69;100.00;99235.44;5056009;28;19924;-83
2021/05/20 04:06:59;;;;;;;;;;;;;;;1.68;100.00;99228.31;5055643;28;19924;-83
2021/05/20 04:09:27;;;;;;;;;;;;;;;1.86;100.00;99235.00;5055903;28;19981;-83
2021/05/20 04:12:00;;;;;;;;;;;;;;;1.93;100.00;99239.88;5055689;28;19925;-83
2021/05/20 04:14:27;;;;;;;;;;;;;;;1.95;100.00;99220.22;5055938;28;19932;-83
2021/05/20 04:16:54;;;;;;;;;;;;;;;1.78;100.00;99222.25;5055424;28;19928;-83
2021/05/20 04:19:21;;;;;;;;;;;;;;;1.65;100.00;99229.03;5057125;28;19928;-83
2021/05/20 04:21:48;;;;;;;;;;;;;;;1.36;100.00;99221.31;5056722;28;20380;-83
2021/05/20 04:24:15;;;;;;;;;;;;;;;1.37;100.00;99219.38;5039076;28;19925;-83
2021/05/20 04:26:42;;;;;;;;;;;;;;;1.61;100.00;99214.41;5039019;28;20372;-83
2021/05/20 04:29:09;;;;;;;;;;;;;;;1.76;100.00;99212.75;5056607;28;19932;-83
2021/05/20 04:31:37;;;;;;;;;;;;;;;2.01;100.00;99208.56;5055471;28;19929;-83
2021/05/20 04:34:04;;;;;;;;;;;;;;;2.18;100.00;99208.09;5055332;28;19925;-83
2021/05/20 04:36:33;;;;;;;;;;;;;;;2.35;100.00;99215.91;5056743;28;19925;-83
2021/05/20 04:39:00;;;;;;;;;;;;;;;2.48;100.00;99222.06;5038618;28;19928;-83
2021/05/20 04:41:28;;;;;;;;;;;;;;;2.58;100.00;99211.22;5035458;28;19975;-83
2021/05/20 04:43:55;;;;;;;;;;;;;;;2.60;100.00;99213.59;5052001;28;19932;-83
2021/05/20 04:46:22;;;;;;;;;;;;;;;2.74;100.00;99208.34;5037305;28;19925;-83
2021/05/20 04:48:49;;;;;;;;;;;;;;;2.73;100.00;99203.97;5055169;28;19925;-83
2021/05/20 04:51:17;;;;;;;;;;;;;;;2.77;100.00;99202.09;5058108;28;19961;-83
2021/05/20 04:53:44;;;;;;;;;;;;;;;2.83;100.00;99201.38;5058600;28;19924;-83
2021/05/20 04:56:12;;;;;;;;;;;;;;;2.82;100.00;99199.00;5060797;28;19974;-79
2021/05/20 04:58:39;;;;;;;;;;;;;;;2.80;100.00;99190.31;5054757;28;19931;-77
2021/05/20 05:01:06;;;;;;;;;;;;;;;2.99;100.00;99202.06;5055618;28;20019;-77
2021/05/20 05:03:33;;;;;;;;;;;;;;;3.19;100.00;99197.25;5053837;28;19932;-78
2021/05/20 05:06:00;;;;;;;;;;;;;;;3.22;100.00;99204.78;5046878;28;19932;-78
2021/05/20 05:08:27;;;;;;;;;;;;;;;3.34;100.00;99196.28;5055954;28;19983;-78
2021/05/20 05:10:55;;;;;;;;;;;;;;;3.32;100.00;99188.38;5054650;28;19932;-78
2021/05/20 05:13:22;;;;;;;;;;;;;;;3.02;100.00;99187.53;5054250;28;19933;-78
2021/05/20 05:15:50;;;;;;;;;;;;;;;3.03;100.00;99193.84;5053031;28;19925;-79
2021/05/20 05:18:17;;;;;;;;;;;;;;;3.13;100.00;99193.19;5066463;28;19967;-79
2021/05/20 05:20:44;;;;;;;;;;;;;;;3.37;100.00;99184.50;5056420;28;19928;-79
2021/05/20 05:23:12;;;;;;;;;;;;;;;3.48;100.00;99185.44;5054654;28;19925;-79
2021/05/20 05:25:40;;;;;;;;;;;;;;;3.49;100.00;99184.25;5057532;28;20391;-79
2021/05/20 05:28:07;;;;;;;;;;;;;;;3.58;100.00;99188.34;5059378;28;20078;-79
2021/05/20 05:30:34;;;;;;;;;;;;;;;3.65;100.00;99182.09;5063147;28;20019;-79
2021/05/20 05:33:01;;;;;;;;;;;;;;;3.83;100.00;99172.09;5062997;28;19931;-79
2021/05/20 05:35:28;;;;;;;;;;;;;;;3.80;100.00;99178.38;5060919;28;19929;-79
2021/05/20 05:37:56;;;;;;;;;;;;;;;3.81;100.00;99173.63;5066540;28;19999;-79
2021/05/20 05:40:26;;;;;;;;;;;;;;;3.84;100.00;99168.16;5054017;28;19925;-79
2021/05/20 05:42:53;;;;;;;;;;;;;;;3.86;100.00;99163.06;5051673;28;20379;-79
2021/05/20 05:45:20;;;;;;;;;;;;;;;3.77;100.00;99150.69;5065293;28;19925;-79
2021/05/20 05:47:48;;;;;;;;;;;;;;;3.70;100.00;99154.16;5057355;28;20368;-79
2021/05/20 05:50:15;;;;;;;;;;;;;;;3.73;100.00;99145.09;5071611;28;20376;-78
2021/05/20 05:52:42;;;;;;;;;;;;;;;3.91;100.00;99148.88;5071699;28;20370;-79
2021/05/20 05:55:10;;;;;;;;;;;;;;;4.03;100.00;99153.38;5063609;28;19928;-79
2021/05/20 05:57:37;;;;;;;;;;;;;;;4.16;100.00;99152.72;5054490;28;20016;-79
2021/05/20 06:00:05;;;;;;;;;;;;;;;4.21;100.00;99149.59;5072941;28;19942;-79
2021/05/20 06:02:42;;;;;;;;;;;;;;;4.15;100.00;99139.28;5068109;28;19925;-78
2021/05/20 06:05:10;;;;;;;;;;;;;;;4.17;100.00;99131.38;5072479;28;19925;-79
2021/05/20 06:07:37;;;;;;;;;;;;;;;4.12;100.00;99132.50;5073058;28;19928;-79
2021/05/20 06:10:06;;;;;;;;;;;;;;;4.01;100.00;99128.06;5067736;28;20461;-79
2021/05/20 06:12:33;;;;;;;;;;;;;;;4.14;100.00;99127.41;5069897;28;20368;-78
2021/05/20 06:15:00;;;;;;;;;;;;;;;4.28;100.00;99126.75;5074114;28;19928;-78
2021/05/20 06:17:28;;;;;;;;;;;;;;;4.41;100.00;99130.84;5073979;28;20010;-79
2021/05/20 06:19:55;;;;;;;;;;;;;;;4.48;100.00;99123.41;5066891;28;19929;-79
2021/05/20 06:22:22;;;;;;;;;;;;;;;4.32;100.00;99120.09;5074463;28;20431;-82
2021/05/20 06:24:49;;;;;;;;;;;;;;;4.34;100.00;99109.44;5059121;28;20280;-80
2021/05/20 06:27:16;;;;;;;;;;;;;;;4.37;100.00;99103.16;5073041;28;19924;-78
2021/05/20 06:29:43;;;;;;;;;;;;;;;4.47;100.00;99096.91;5074755;28;19924;-83
2021/05/20 06:32:11;;;;;;;;;;;;;;;4.68;100.00;99097.06;5055046;28;19924;-83
2021/05/20 06:34:38;;;;;;;;;;;;;;;4.62;100.00;99106.13;5072225;28;19936;-83
2021/05/20 06:37:05;;;;;;;;;;;;;;;4.44;100.00;99089.38;5056591;28;20031;-84
2021/05/20 06:39:32;;;;;;;;;;;;;;;4.57;100.00;99084.34;5074507;28;19931;-84
2021/05/20 06:41:59;;;;;;;;;;;;;;;4.71;100.00;99068.63;5068949;28;19932;-84
2021/05/20 06:44:27;;;;;;;;;;;;;;;4.85;100.00;99057.66;5069489;28;19924;-85
2021/05/20 06:46:54;;;;;;;;;;;;;;;4.96;100.00;99069.59;5052540;28;19972;-83
2021/05/20 06:49:45;;;;;;;;;;;;;;;4.80;100.00;99060.78;5049202;28;19925;-79
2021/05/20 06:52:12;;;;;;;;;;;;;;;4.92;100.00;99049.38;5068122;28;19940;-82
2021/05/20 06:54:40;;;;;;;;;;;;;;;5.18;100.00;99056.69;5064280;28;19924;-82
2021/05/20 06:57:17;;;;;;;;;;;;;;;5.40;100.00;99058.34;5060633;28;20518;-82
2021/05/20 07:02:46;;;;;;;;;;;;;;;5.92;100.00;99046.69;5026591;28;20018;-83
2021/05/20 07:05:13;;;;;;;;;;;;;;;6.18;100.00;99031.66;5050452;28;19924;-82
2021/05/20 07:07:41;;;;;;;;;;;;;;;6.29;100.00;99038.81;5050560;28;19971;-83
2021/05/20 07:10:08;;;;;;;;;;;;;;;6.42;100.00;99044.75;5049776;28;19925;-83
2021/05/20 07:12:35;;;;;;;;;;;;;;;6.39;100.00;99031.69;5056082;28;19956;-85
2021/05/20 07:15:03;;;;;;;;;;;;;;;6.48;100.00;99032.84;5051867;28;19925;-85
2021/05/20 07:17:30;;;;;;;;;;;;;;;6.65;100.00;99015.38;5066241;28;19947;-82
2021/05/20 07:19:57;;;;;;;;;;;;;;;6.88;100.00;99009.41;5041413;28;20019;-80
2021/05/20 07:22:25;;;;;;;;;;;;;;;6.91;100.00;99003.03;5049497;28;19940;-80
2021/05/20 07:24:52;;;;;;;;;;;;;;;6.92;100.00;98997.09;5050063;28;19925;-81
2021/05/20 07:27:19;;;;;;;;;;;;;;;6.77;100.00;98991.97;5048840;28;19985;-81
2021/05/20 07:29:46;;;;;;;;;;;;;;;6.79;100.00;98986.81;5050317;28;19925;-81
2021/05/20 07:32:18;;;;;;;;;;;;;;;6.79;100.00;98986.81;5048104;28;19936;-79
2021/05/20 07:34:45;;;;;;;;;;;;;;;6.78;100.00;98979.69;5049448;28;19932;-80
2021/05/20 07:37:13;;;;;;;;;;;;;;;7.18;100.00;98968.03;5049242;28;20011;-80
2021/05/20 07:39:40;;;;;;;;;;;;;;;7.46;100.00;98964.31;5063583;28;19924;-83
2021/05/20 07:42:07;;;;;;;;;;;;;;;7.85;100.00;98954.56;5059703;28;19971;-78
2021/05/20 07:44:36;;;;;;;;;;;;;;;8.14;100.00;98949.56;5066803;28;19925;-81
2021/05/20 07:47:03;;;;;;;;;;;;;;;8.31;100.00;98935.53;5053340;28;20647;-82
2021/05/20 07:49:32;;;;;;;;;;;;;;;8.38;100.00;98924.34;5048022;28;20379;-80
2021/05/20 07:51:59;;;;;;;;;;;;;;;8.50;100.00;98915.47;5050700;28;19948;-79
2021/05/20 07:54:26;;;;;;;;;;;;;;;8.39;100.00;98909.19;5051976;28;20295;-80
2021/05/20 07:56:53;;;;;;;;;;;;;;;8.41;100.00;98908.78;5055764;28;19947;-81
2021/05/20 07:59:20;;;;;;;;;;;;;;;8.35;100.00;98894.53;5053248;28;19932;-80
2021/05/20 08:02:29;;;;;;;;;;;;;;;8.18;100.00;98887.09;5057362;28;19924;-81
2021/05/20 08:04:42;;;;;;;;;;;;;;;8.20;100.00;98868.00;5054193;28;19924;-79
2021/05/20 08:08:07;;;;;;;;;;;;;;;8.22;100.00;98857.28;5053180;28;20361;-80
2021/05/20 08:10:24;;;;;;;;;;;;;;;8.42;100.00;98847.13;5055320;28;19924;-80
2021/05/20 08:12:51;;;;;;;;;;;;;;;8.62;100.00;98842.53;5032876;28;19929;-80
2021/05/20 08:15:19;;;;;;;;;;;;;;;8.79;100.00;98824.81;5051580;28;20404;-80
2021/05/20 08:17:46;;;;;;;;;;;;;;;8.87;100.00;98812.38;5050516;28;20437;-80
2021/05/20 08:20:13;;;;;;;;;;;;;;;8.93;100.00;98798.75;5050174;28;20011;-81
2021/05/20 08:22:40;;;;;;;;;;;;;;;8.91;100.00;98788.03;5064420;28;20310;-81
2021/05/20 08:25:07;;;;;;;;;;;;;;;8.86;100.00;98768.22;5066241;28;20279;-81
2021/05/20 08:27:34;;;;;;;;;;;;;;;9.19;100.00;98753.41;5054907;28;19924;-81
2021/05/20 08:30:03;;;;;;;;;;;;;;;9.39;100.00;98739.53;5050225;28;20264;-81
2021/05/20 08:32:30;;;;;;;;;;;;;;;9.52;100.00;98718.19;5051941;28;20019;-80
2021/05/20 08:34:57;;;;;;;;;;;;;;;9.27;100.00;98703.91;5057450;28;20423;-79
2021/05/20 08:37:25;;;;;;;;;;;;;;;9.22;100.00;98690.44;5056801;28;20014;-80
2021/05/20 08:39:52;;;;;;;;;;;;;;;9.11;100.00;98674.69;5062827;28;20623;-80
2021/05/20 08:42:19;;;;;;;;;;;;;;;8.77;100.00;98657.28;5069819;28;19935;-79
2021/05/20 08:44:46;;;;;;;;;;;;;;;9.10;100.00;98648.00;5069872;28;20398;-80
2021/05/20 08:47:13;;;;;;;;;;;;;;;9.37;100.00;98652.72;5071530;28;19925;-93
2021/05/20 08:49:45;;;;;;;;;;;;;;;9.46;100.00;98642.59;5055563;28;19946;-79
2021/05/20 08:52:13;;;;;;;;;;;;;;;9.47;100.00;98618.28;5060538;28;20367;-79
2021/05/20 08:54:49;;;;;;;;;;;;;;;9.48;100.00;98619.88;5059972;28;19928;-81
2021/05/20 08:57:21;;;;;;;;;;;;;;;9.19;100.00;98625.19;5060837;28;19925;-81
2021/05/20 08:59:49;;;;;;;;;;;;;;;8.79;100.00;98601.97;5059267;28;20471;-81
2021/05/20 09:02:26;;;;;;;;;;;;;;;8.79;100.00;98596.38;5058970;28;19929;-80
2021/05/20 09:05:01;;;;;;;;;;;;;;;9.01;100.00;98608.75;5060918;28;20380;-82
2021/05/20 09:07:34;;;;;;;;;;;;;;;8.93;100.00;98590.59;5059503;28;19924;-79
2021/05/20 09:10:12;;;;;;;;;;;;;;;9.18;100.00;98583.78;5059268;28;19925;-83
2021/05/20 09:12:39;;;;;;;;;;;;;;;9.50;100.00;98570.81;5040257;28;20628;-78
2021/05/20 09:15:16;;;;;;;;;;;;;;;9.75;100.00;98573.13;5061761;28;20372;-79
2021/05/20 09:17:43;;;;;;;;;;;;;;;9.82;100.00;98562.59;5059802;28;20433;-80
2021/05/20 09:20:11;;;;;;;;;;;;;;;9.63;100.00;98529.13;5055872;28;19931;-80
2021/05/20 09:22:39;;;;;;;;;;;;;;;9.53;100.00;98525.34;5050812;28;19925;-82
2021/05/20 09:25:07;;;;;;;;;;;;;;;9.75;100.00;98514.53;5053353;28;20348;-82
2021/05/20 09:27:45;;;;;;;;;;;;;;;9.61;100.00;98498.09;5052294;28;19925;-82
2021/05/20 09:30:14;;;;;;;;;;;;;;;9.62;100.00;98494.88;5050254;28;19929;-80
2021/05/20 09:32:42;;;;;;;;;;;;;;;9.75;100.00;98479.06;5067625;28;19939;-81
2021/05/20 09:35:10;;;;;;;;;;;;;;;9.85;100.00;98469.66;5052919;28;20288;-83
2021/05/20 09:37:50;;;;;;;;;;;;;;;9.89;100.00;98458.41;5051912;28;19929;-83
2021/05/20 09:40:19;;;;;;;;;;;;;;;9.85;100.00;98460.50;5053199;28;19932;-81
2021/05/20 09:42:48;;;;;;;;;;;;;;;9.84;100.00;98458.94;5052505;28;20354;-78
2021/05/20 09:45:18;;;;;;;;;;;;;;;9.88;100.00;98449.25;5053095;28;19947;-78
2021/05/20 09:47:45;;;;;;;;;;;;;;;9.81;100.00;98426.31;5053156;28;19983;-78
2021/05/20 09:50:21;;;;;;;;;;;;;;;9.84;100.00;98408.69;5054387;28;20384;-79
2021/05/20 09:52:49;;;;;;;;;;;;;;;9.90;100.00;98401.38;5054758;28;19956;-78
2021/05/20 09:55:24;;;;;;;;;;;;;;;9.85;100.00;98401.91;5054115;28;19952;-78
2021/05/20 09:57:52;;;;;;;;;;;;;;;9.79;100.00;98372.94;5054440;28;20264;-78
2021/05/20 10:00:21;;;;;;;;;;;;;;;9.83;100.00;98379.25;5053592;28;19925;-78
2021/05/20 10:02:58;;;;;;;;;;;;;;;9.82;100.00;98375.66;5053049;28;19948;-79
2021/05/20 10:05:28;;;;;;;;;;;;;;;9.80;100.00;98368.94;5053285;28;20033;-78
2021/05/20 10:07:55;;;;;;;;;;;;;;;9.87;100.00;98382.72;5054291;28;19964;-79
2021/05/20 10:10:29;;;;;;;;;;;;;;;9.78;100.00;98360.22;5054119;28;19925;-77
2021/05/20 10:12:56;;;;;;;;;;;;;;;9.71;100.00;98360.41;5054096;28;19924;-78
2021/05/20 10:15:49;;;;;;;;;;;;;;;9.75;100.00;98363.88;5054022;28;19971;-75
2021/05/20 10:18:17;;;;;;;;;;;;;;;9.75;100.00;98347.94;5053795;28;19929;-75
2021/05/20 10:20:47;;;;;;;;;;;;;;;9.76;100.00;98327.19;5069355;28;20652;-77
2021/05/20 10:23:15;;;;;;;;;;;;;;;9.68;100.00;98336.16;5052725;28;19960;-78
2021/05/20 10:26:10;;;;;;;;;;;;;;;9.57;100.00;98330.03;5053718;28;19925;-78
2021/05/20 10:28:37;;;;;;;;;;;;;;;9.67;100.00;98315.06;5052598;28;19964;-77
2021/05/20 10:31:05;;;;;;;;;;;;;;;9.60;100.00;98348.69;5053931;28;19925;-78
2021/05/20 10:33:32;;;;;;;;;;;;;;;9.48;100.00;98321.50;5053397;28;19925;-77
2021/05/20 10:36:00;;;;;;;;;;;;;;;9.40;100.00;98311.72;5052650;28;20502;-77
2021/05/20 10:38:31;;;;;;;;;;;;;;;9.18;100.00;98346.88;5053605;28;20422;-77
2021/05/20 10:41:10;;;;;;;;;;;;;;;9.26;100.00;98335.13;5040462;28;19929;-77
2021/05/20 10:43:38;;;;;;;;;;;;;;;9.31;100.00;98329.06;5053519;28;19931;-77
2021/05/20 10:46:06;;;;;;;;;;;;;;;9.25;100.00;98355.06;5053569;28;20370;-76
2021/05/20 10:48:34;;;;;;;;;;;;;;;9.18;100.00;98334.50;5052695;28;20020;-78
2021/05/20 10:51:01;;;;;;;;;;;;;;;9.14;100.00;98360.88;5053359;28;19929;-77
2021/05/20 10:53:38;;;;;;;;;;;;;;;9.11;100.00;98322.72;5054395;28;19932;-77
2021/05/20 10:56:05;;;;;;;;;;;;;;;8.99;100.00;98304.69;5051519;28;19929;-74
2021/05/20 10:58:36;;;;;;;;;;;;;;;8.85;100.00;98293.84;5054014;28;19959;-76
2021/05/20 11:01:05;;;;;;;;;;;;;;;8.82;100.00;98325.34;5069135;28;19924;-77
2021/05/20 11:03:51;;;;;;;;;;;;;;;8.76;100.00;98329.84;5071437;28;20019;-78
2021/05/20 11:06:20;;;;;;;;;;;;;;;8.80;100.00;98319.41;5052909;28;19931;-78
2021/05/20 11:08:47;;;;;;;;;;;;;;;8.80;100.00;98322.19;5059588;28;19925;-78
2021/05/20 11:11:43;;;;;;;;;;;;;;;8.73;100.00;98308.41;5052267;28;20261;-78
2021/05/20 11:14:13;;;;;;;;;;;;;;;8.69;100.00;98302.09;5055554;28;20023;-78
2021/05/20 11:16:41;;;;;;;;;;;;;;;8.63;100.00;98275.22;5053534;28;19928;-78
2021/05/20 11:19:17;;;;;;;;;;;;;;;8.65;100.00;98273.56;5056599;28;20004;-78
2021/05/20 11:22:01;;;;;;;;;;;;;;;8.58;100.00;98262.59;5056456;28;20385;-78
2021/05/20 11:24:31;;;;;;;;;;;;;;;8.56;100.00;98264.22;5059005;28;19925;-78
2021/05/20 11:27:23;;;;;;;;;;;;;;;8.63;100.00;98253.69;5062807;28;19924;-78
2021/05/20 11:29:50;;;;;;;;;;;;;;;8.69;100.00;98251.97;5055093;28;19932;-78
2021/05/20 11:32:32;;;;;;;;;;;;;;;8.76;100.00;98240.72;5053507;28;19925;-78
2021/05/20 11:38:21;;;;;;;;;;;;;;;8.76;100.00;98251.84;5052626;28;19940;-78
2021/05/20 11:40:48;;;;;;;;;;;;;;;8.68;100.00;98232.91;5057326;28;20069;-78
2021/05/20 11:43:24;;;;;;;;;;;;;;;8.64;100.00;98205.16;5063729;28;19925;-77
2021/05/20 11:45:53;;;;;;;;;;;;;;;8.59;100.00;98230.72;5065961;28;19932;-77
2021/05/20 11:48:20;;;;;;;;;;;;;;;8.50;100.00;98213.81;5064054;28;19932;-77
2021/05/20 11:50:51;;;;;;;;;;;;;;;8.59;100.00;98197.31;5079872;28;20008;-77
2021/05/20 11:53:18;;;;;;;;;;;;;;;8.62;100.00;98202.03;5065170;28;20015;-76
2021/05/20 11:55:46;;;;;;;;;;;;;;;8.71;100.00;98216.13;5063209;28;20410;-76
2021/05/20 11:58:14;;;;;;;;;;;;;;;8.65;100.00;98201.16;5066689;28;19966;-77
2021/05/20 12:00:41;;;;;;;;;;;;;;;8.71;100.00;98177.16;5061898;28;20283;-77
2021/05/20 12:03:09;;;;;;;;;;;;;;;8.68;100.00;98164.09;5070938;28;20039;-77
2021/05/20 12:05:36;;;;;;;;;;;;;;;8.66;100.00;98141.44;5065799;28;20427;-77
2021/05/20 12:08:27;;;;;;;;;;;;;;;8.49;100.00;98137.09;5054762;28;19924;-77
2021/05/20 12:10:54;;;;;;;;;;;;;;;8.51;100.00;98134.63;5065690;28;19925;-77
2021/05/20 12:13:21;;;;;;;;;;;;;;;8.56;100.00;98130.56;5069598;28;19939;-77
2021/05/20 12:15:48;;;;;;;;;;;;;;;8.65;100.00;98112.06;5064234;28;19931;-77
2021/05/20 12:18:17;;;;;;;;;;;;;;;8.63;100.00;98114.47;5064695;28;19925;-78
2021/05/20 12:20:48;;;;;;;;;;;;;;;8.66;100.00;98105.25;5057632;28;19925;-77
2021/05/20 12:23:16;;;;;;;;;;;;;;;8.60;100.00;98093.06;5058639;28;19995;-77
2021/05/20 12:25:44;;;;;;;;;;;;;;;8.55;100.00;98084.47;5056970;28;19932;-77
2021/05/20 12:28:12;;;;;;;;;;;;;;;8.62;100.00;98036.94;5059686;28;20371;-77
2021/05/20 12:30:40;;;;;;;;;;;;;;;8.54;100.00;98072.53;5070789;28;19925;-77
2021/05/20 12:33:09;;;;;;;;;;;;;;;8.58;100.00;98045.41;5066837;28;20007;-78
2021/05/20 12:35:36;;;;;;;;;;;;;;;8.69;100.00;98000.59;5054909;28;19963;-77
2021/05/20 12:38:05;;;;;;;;;;;;;;;8.66;100.00;98054.38;5055393;28;19932;-78
2021/05/20 12:40:41;;;;;;;;;;;;;;;8.70;100.00;98041.13;5071149;28;20021;-77
2021/05/20 12:43:26;;;;;;;;;;;;;;;8.76;100.00;98022.69;5055124;28;19925;-78
2021/05/20 12:46:04;;;;;;;;;;;;;;;8.66;100.00;98024.50;5066077;28;20492;-77
2021/05/20 12:48:40;;;;;;;;;;;;;;;8.67;100.00;98031.66;5056389;28;19929;-78
2021/05/20 12:51:13;;;;;;;;;;;;;;;8.77;100.00;98027.81;5057132;28;20010;-78
2021/05/20 12:53:42;;;;;;;;;;;;;;;8.85;100.00;98023.63;5057538;28;20030;-77
2021/05/20 12:56:24;;;;;;;;;;;;;;;8.73;100.00;98024.34;5057570;28;20373;-78
2021/05/20 12:59:06;;;;;;;;;;;;;;;8.76;100.00;98023.47;5057298;28;19939;-78
2021/05/20 13:05:15;;;;;;;;;;;;;;;8.88;100.00;98013.63;5034537;28;19970;-80
2021/05/20 13:07:42;;;;;;;;;;;;;;;8.82;100.00;98010.59;5049834;28;19933;-80